sensor_id;sensor_type;location;lat;lon;timestamp;P1;durP1;ratioP1;P2;durP2;ratioP2
8007;SDS011;4049;49.468;11.200;2024-03-23T00:53:05;8.27;;;4.97;;
8007;SDS011;4049;49.468;11.200;2024-03-23T00:55:32;7.03;;;5.00;;
8007;SDS011;4049;49.468;11.200;2024-03-23T00:57:58;7.17;;;5.00;;
8007;SDS011;4049;49.468;11.200;2024-03-23T01:00:25;6.10;;;4.77;;
8007;SDS011;4049;49.468;11.200;2024-03-23T01:02:54;8.87;;;5.37;;
8007;SDS011;4049;49.468;11.200;2024-03-23T01:05:21;6.90;;;5.00;;
8007;SDS011;4049;49.468;11.200;2024-03-23T01:07:47;6.23;;;5.10;;
8007;SDS011;4049;49.468;11.200;2024-03-23T01:10:15;6.97;;;4.97;;
8007;SDS011;4049;49.468;11.200;2024-03-23T01:12:41;10.53;;;5.17;;
8007;SDS011;4049;49.468;11.200;2024-03-23T01:15:08;6.23;;;5.20;;
8007;SDS011;4049;49.468;11.200;2024-03-23T01:17:34;7.23;;;4.67;;
8007;SDS011;4049;49.468;11.200;2024-03-23T01:20:01;6.80;;;4.97;;
8007;SDS011;4049;49.468;11.200;2024-03-23T01:22:28;7.93;;;5.40;;
8007;SDS011;4049;49.468;11.200;2024-03-23T01:24:54;9.97;;;5.73;;
8007;SDS011;4049;49.468;11.200;2024-03-23T01:27:22;6.97;;;5.33;;
8007;SDS011;4049;49.468;11.200;2024-03-23T01:29:49;9.63;;;5.47;;
8007;SDS011;4049;49.468;11.200;2024-03-23T01:32:17;9.27;;;5.50;;
8007;SDS011;4049;49.468;11.200;2024-03-23T01:34:44;6.83;;;4.70;;
8007;SDS011;4049;49.468;11.200;2024-03-23T01:37:10;7.23;;;4.93;;
8007;SDS011;4049;49.468;11.200;2024-03-23T01:39:37;6.57;;;4.60;;
8007;SDS011;4049;49.468;11.200;2024-03-23T01:42:03;8.40;;;5.10;;
8007;SDS011;4049;49.468;11.200;2024-03-23T01:44:32;7.83;;;4.80;;
8007;SDS011;4049;49.468;11.200;2024-03-23T01:46:57;7.20;;;4.93;;
8007;SDS011;4049;49.468;11.200;2024-03-23T01:49:24;7.27;;;4.87;;
8007;SDS011;4049;49.468;11.200;2024-03-23T01:51:51;8.37;;;5.33;;
8007;SDS011;4049;49.468;11.200;2024-03-23T01:54:18;5.63;;;4.27;;
8007;SDS011;4049;49.468;11.200;2024-03-23T01:56:44;6.67;;;4.50;;
8007;SDS011;4049;49.468;11.200;2024-03-23T01:59:11;5.90;;;4.50;;
8007;SDS011;4049;49.468;11.200;2024-03-23T02:01:39;6.37;;;5.10;;
8007;SDS011;4049;49.468;11.200;2024-03-23T02:04:06;7.67;;;4.53;;
8007;SDS011;4049;49.468;11.200;2024-03-23T02:06:34;8.10;;;5.07;;
8007;SDS011;4049;49.468;11.200;2024-03-23T02:09:01;7.70;;;4.83;;
8007;SDS011;4049;49.468;11.200;2024-03-23T02:11:28;7.80;;;5.17;;
8007;SDS011;4049;49.468;11.200;2024-03-23T02:13:55;6.33;;;4.53;;
8007;SDS011;4049;49.468;11.200;2024-03-23T02:16:21;10.00;;;5.03;;
8007;SDS011;4049;49.468;11.200;2024-03-23T02:18:49;7.37;;;5.67;;
8007;SDS011;4049;49.468;11.200;2024-03-23T02:21:15;8.77;;;5.40;;
8007;SDS011;4049;49.468;11.200;2024-03-23T02:23:43;8.10;;;5.30;;
8007;SDS011;4049;49.468;11.200;2024-03-23T02:26:09;7.30;;;5.10;;
8007;SDS011;4049;49.468;11.200;2024-03-23T02:28:36;7.60;;;5.30;;
8007;SDS011;4049;49.468;11.200;2024-03-23T02:31:02;8.13;;;5.30;;
8007;SDS011;4049;49.468;11.200;2024-03-23T02:33:29;10.40;;;5.60;;
8007;SDS011;4049;49.468;11.200;2024-03-23T02:35:57;7.93;;;5.13;;
8007;SDS011;4049;49.468;11.200;2024-03-23T02:38:24;10.20;;;5.10;;
8007;SDS011;4049;49.468;11.200;2024-03-23T02:40:51;7.27;;;5.23;;
8007;SDS011;4049;49.468;11.200;2024-03-23T02:43:18;8.50;;;4.97;;
8007;SDS011;4049;49.468;11.200;2024-03-23T02:45:44;10.33;;;5.40;;
8007;SDS011;4049;49.468;11.200;2024-03-23T02:48:10;7.87;;;5.13;;
8007;SDS011;4049;49.468;11.200;2024-03-23T02:50:36;8.80;;;5.30;;
8007;SDS011;4049;49.468;11.200;2024-03-23T02:53:03;8.13;;;5.03;;
8007;SDS011;4049;49.468;11.200;2024-03-23T02:55:29;7.90;;;5.20;;
8007;SDS011;4049;49.468;11.200;2024-03-23T02:57:57;9.17;;;5.40;;
8007;SDS011;4049;49.468;11.200;2024-03-23T03:00:26;6.63;;;4.93;;
8007;SDS011;4049;49.468;11.200;2024-03-23T03:02:53;8.30;;;5.07;;
8007;SDS011;4049;49.468;11.200;2024-03-23T03:05:19;8.20;;;5.27;;
8007;SDS011;4049;49.468;11.200;2024-03-23T03:07:46;7.53;;;4.73;;
8007;SDS011;4049;49.468;11.200;2024-03-23T03:10:12;6.93;;;5.17;;
8007;SDS011;4049;49.468;11.200;2024-03-23T03:12:39;6.37;;;4.60;;
8007;SDS011;4049;49.468;11.200;2024-03-23T03:15:06;7.27;;;4.80;;
8007;SDS011;4049;49.468;11.200;2024-03-23T03:17:34;11.87;;;4.90;;
8007;SDS011;4049;49.468;11.200;2024-03-23T03:20:00;8.60;;;4.70;;
8007;SDS011;4049;49.468;11.200;2024-03-23T03:22:29;7.03;;;5.00;;
8007;SDS011;4049;49.468;11.200;2024-03-23T03:24:55;6.03;;;4.47;;
8007;SDS011;4049;49.468;11.200;2024-03-23T03:27:22;11.07;;;5.30;;
8007;SDS011;4049;49.468;11.200;2024-03-23T03:29:48;10.07;;;4.87;;
8007;SDS011;4049;49.468;11.200;2024-03-23T03:32:16;9.03;;;5.57;;
8007;SDS011;4049;49.468;11.200;2024-03-23T03:34:42;8.47;;;4.80;;
8007;SDS011;4049;49.468;11.200;2024-03-23T03:37:09;9.20;;;6.13;;
8007;SDS011;4049;49.468;11.200;2024-03-23T03:39:34;9.63;;;5.93;;
8007;SDS011;4049;49.468;11.200;2024-03-23T03:42:02;8.07;;;5.40;;
8007;SDS011;4049;49.468;11.200;2024-03-23T03:44:31;9.70;;;6.63;;
8007;SDS011;4049;49.468;11.200;2024-03-23T03:46:58;10.67;;;7.53;;
8007;SDS011;4049;49.468;11.200;2024-03-23T03:49:25;8.63;;;6.50;;
8007;SDS011;4049;49.468;11.200;2024-03-23T03:51:52;11.83;;;6.93;;
8007;SDS011;4049;49.468;11.200;2024-03-23T03:54:21;11.23;;;7.30;;
8007;SDS011;4049;49.468;11.200;2024-03-23T03:56:48;10.60;;;7.60;;
8007;SDS011;4049;49.468;11.200;2024-03-23T03:59:13;12.40;;;7.40;;
8007;SDS011;4049;49.468;11.200;2024-03-23T04:01:41;11.10;;;7.70;;
8007;SDS011;4049;49.468;11.200;2024-03-23T04:04:06;10.60;;;7.20;;
8007;SDS011;4049;49.468;11.200;2024-03-23T04:06:35;9.50;;;7.23;;
8007;SDS011;4049;49.468;11.200;2024-03-23T04:09:00;10.20;;;7.37;;
8007;SDS011;4049;49.468;11.200;2024-03-23T04:11:27;12.10;;;7.50;;
8007;SDS011;4049;49.468;11.200;2024-03-23T04:13:53;10.47;;;6.90;;
8007;SDS011;4049;49.468;11.200;2024-03-23T04:16:27;11.33;;;7.80;;
8007;SDS011;4049;49.468;11.200;2024-03-23T04:18:53;11.03;;;7.03;;
8007;SDS011;4049;49.468;11.200;2024-03-23T04:21:20;12.17;;;7.33;;
8007;SDS011;4049;49.468;11.200;2024-03-23T04:23:48;11.57;;;6.93;;
8007;SDS011;4049;49.468;11.200;2024-03-23T04:26:15;10.00;;;6.50;;
8007;SDS011;4049;49.468;11.200;2024-03-23T04:28:41;10.03;;;6.40;;
8007;SDS011;4049;49.468;11.200;2024-03-23T04:31:08;8.53;;;6.63;;
8007;SDS011;4049;49.468;11.200;2024-03-23T04:33:34;9.57;;;6.63;;
8007;SDS011;4049;49.468;11.200;2024-03-23T04:36:01;10.30;;;6.47;;
8007;SDS011;4049;49.468;11.200;2024-03-23T04:38:27;9.80;;;6.03;;
8007;SDS011;4049;49.468;11.200;2024-03-23T04:40:59;9.90;;;6.30;;
8007;SDS011;4049;49.468;11.200;2024-03-23T04:43:27;9.97;;;6.30;;
8007;SDS011;4049;49.468;11.200;2024-03-23T04:45:54;8.80;;;5.80;;
8007;SDS011;4049;49.468;11.200;2024-03-23T04:48:23;8.90;;;6.37;;
8007;SDS011;4049;49.468;11.200;2024-03-23T04:50:54;8.33;;;5.67;;
8007;SDS011;4049;49.468;11.200;2024-03-23T04:53:22;9.07;;;6.43;;
8007;SDS011;4049;49.468;11.200;2024-03-23T04:55:53;6.80;;;5.73;;
8007;SDS011;4049;49.468;11.200;2024-03-23T04:58:21;12.33;;;6.53;;
8007;SDS011;4049;49.468;11.200;2024-03-23T05:00:47;8.40;;;5.77;;
8007;SDS011;4049;49.468;11.200;2024-03-23T05:03:15;8.30;;;5.90;;
8007;SDS011;4049;49.468;11.200;2024-03-23T05:05:40;8.50;;;6.13;;
8007;SDS011;4049;49.468;11.200;2024-03-23T05:08:07;9.10;;;6.20;;
8007;SDS011;4049;49.468;11.200;2024-03-23T05:10:33;9.33;;;6.30;;
8007;SDS011;4049;49.468;11.200;2024-03-23T05:13:00;8.40;;;5.50;;
8007;SDS011;4049;49.468;11.200;2024-03-23T05:15:28;6.90;;;5.37;;
8007;SDS011;4049;49.468;11.200;2024-03-23T05:17:55;10.70;;;5.73;;
8007;SDS011;4049;49.468;11.200;2024-03-23T05:20:21;8.30;;;5.27;;
8007;SDS011;4049;49.468;11.200;2024-03-23T05:22:49;10.03;;;5.80;;
8007;SDS011;4049;49.468;11.200;2024-03-23T05:25:15;8.53;;;5.60;;
8007;SDS011;4049;49.468;11.200;2024-03-23T05:27:42;6.27;;;5.00;;
8007;SDS011;4049;49.468;11.200;2024-03-23T05:30:08;12.87;;;5.97;;
8007;SDS011;4049;49.468;11.200;2024-03-23T05:32:37;7.73;;;5.40;;
8007;SDS011;4049;49.468;11.200;2024-03-23T05:35:05;8.73;;;5.23;;
8007;SDS011;4049;49.468;11.200;2024-03-23T05:37:33;6.37;;;4.80;;
8007;SDS011;4049;49.468;11.200;2024-03-23T05:39:59;6.60;;;5.17;;
8007;SDS011;4049;49.468;11.200;2024-03-23T05:42:26;6.20;;;5.37;;
8007;SDS011;4049;49.468;11.200;2024-03-23T05:44:52;7.50;;;5.37;;
8007;SDS011;4049;49.468;11.200;2024-03-23T05:47:19;8.17;;;4.97;;
8007;SDS011;4049;49.468;11.200;2024-03-23T05:49:46;7.23;;;5.30;;
8007;SDS011;4049;49.468;11.200;2024-03-23T05:52:13;6.07;;;4.70;;
8007;SDS011;4049;49.468;11.200;2024-03-23T05:54:40;6.10;;;4.20;;
8007;SDS011;4049;49.468;11.200;2024-03-23T05:57:08;7.77;;;4.67;;
8007;SDS011;4049;49.468;11.200;2024-03-23T05:59:37;7.23;;;5.07;;
8007;SDS011;4049;49.468;11.200;2024-03-23T06:02:03;6.93;;;4.80;;
8007;SDS011;4049;49.468;11.200;2024-03-23T06:04:30;6.13;;;4.60;;
8007;SDS011;4049;49.468;11.200;2024-03-23T06:06:57;7.10;;;4.47;;
8007;SDS011;4049;49.468;11.200;2024-03-23T06:09:24;6.70;;;4.30;;
8007;SDS011;4049;49.468;11.200;2024-03-23T06:11:50;5.70;;;4.37;;
8007;SDS011;4049;49.468;11.200;2024-03-23T06:14:17;6.63;;;4.77;;
8007;SDS011;4049;49.468;11.200;2024-03-23T06:16:42;7.60;;;4.20;;
8007;SDS011;4049;49.468;11.200;2024-03-23T06:19:09;5.07;;;4.50;;
8007;SDS011;4049;49.468;11.200;2024-03-23T06:21:35;5.40;;;4.30;;
8007;SDS011;4049;49.468;11.200;2024-03-23T06:24:04;6.60;;;4.63;;
8007;SDS011;4049;49.468;11.200;2024-03-23T06:26:31;7.53;;;4.60;;
8007;SDS011;4049;49.468;11.200;2024-03-23T06:28:57;6.93;;;4.50;;
8007;SDS011;4049;49.468;11.200;2024-03-23T06:31:24;7.83;;;5.60;;
8007;SDS011;4049;49.468;11.200;2024-03-23T06:33:49;8.10;;;5.93;;
8007;SDS011;4049;49.468;11.200;2024-03-23T06:36:16;9.43;;;6.17;;
8007;SDS011;4049;49.468;11.200;2024-03-23T06:38:44;11.80;;;6.83;;
8007;SDS011;4049;49.468;11.200;2024-03-23T06:41:13;9.80;;;6.70;;
8007;SDS011;4049;49.468;11.200;2024-03-23T06:43:39;11.37;;;7.53;;
8007;SDS011;4049;49.468;11.200;2024-03-23T06:46:05;9.07;;;6.73;;
8007;SDS011;4049;49.468;11.200;2024-03-23T06:48:31;12.13;;;6.70;;
8007;SDS011;4049;49.468;11.200;2024-03-23T06:50:58;10.83;;;6.80;;
8007;SDS011;4049;49.468;11.200;2024-03-23T06:53:24;10.80;;;7.47;;
8007;SDS011;4049;49.468;11.200;2024-03-23T06:55:52;9.47;;;7.17;;
8007;SDS011;4049;49.468;11.200;2024-03-23T06:58:20;12.73;;;8.10;;
8007;SDS011;4049;49.468;11.200;2024-03-23T07:00:48;11.07;;;7.40;;
8007;SDS011;4049;49.468;11.200;2024-03-23T07:03:14;13.27;;;8.10;;
8007;SDS011;4049;49.468;11.200;2024-03-23T07:05:41;10.73;;;7.43;;
8007;SDS011;4049;49.468;11.200;2024-03-23T07:08:07;11.20;;;7.70;;
8007;SDS011;4049;49.468;11.200;2024-03-23T07:10:34;13.23;;;7.63;;
8007;SDS011;4049;49.468;11.200;2024-03-23T07:13:00;13.40;;;7.90;;
8007;SDS011;4049;49.468;11.200;2024-03-23T07:15:30;10.53;;;6.93;;
8007;SDS011;4049;49.468;11.200;2024-03-23T07:17:56;10.53;;;6.90;;
8007;SDS011;4049;49.468;11.200;2024-03-23T07:20:23;10.87;;;7.00;;
8007;SDS011;4049;49.468;11.200;2024-03-23T07:22:55;12.03;;;7.97;;
8007;SDS011;4049;49.468;11.200;2024-03-23T07:25:22;11.30;;;6.77;;
8007;SDS011;4049;49.468;11.200;2024-03-23T07:27:50;9.90;;;6.10;;
8007;SDS011;4049;49.468;11.200;2024-03-23T07:30:17;9.97;;;6.50;;
8007;SDS011;4049;49.468;11.200;2024-03-23T07:32:45;8.77;;;6.00;;
8007;SDS011;4049;49.468;11.200;2024-03-23T07:35:12;10.83;;;6.93;;
8007;SDS011;4049;49.468;11.200;2024-03-23T07:37:38;11.13;;;6.37;;
8007;SDS011;4049;49.468;11.200;2024-03-23T07:40:05;10.53;;;6.27;;
8007;SDS011;4049;49.468;11.200;2024-03-23T07:42:32;8.20;;;6.13;;
8007;SDS011;4049;49.468;11.200;2024-03-23T07:44:59;9.60;;;5.40;;
8007;SDS011;4049;49.468;11.200;2024-03-23T07:47:25;8.70;;;5.67;;
8007;SDS011;4049;49.468;11.200;2024-03-23T07:49:54;8.10;;;5.77;;
8007;SDS011;4049;49.468;11.200;2024-03-23T07:52:20;9.73;;;5.70;;
8007;SDS011;4049;49.468;11.200;2024-03-23T07:54:53;9.47;;;5.87;;
8007;SDS011;4049;49.468;11.200;2024-03-23T07:57:18;10.73;;;5.83;;
8007;SDS011;4049;49.468;11.200;2024-03-23T07:59:46;10.67;;;6.10;;
8007;SDS011;4049;49.468;11.200;2024-03-23T08:02:12;8.57;;;5.90;;
8007;SDS011;4049;49.468;11.200;2024-03-23T08:04:39;9.30;;;5.50;;
8007;SDS011;4049;49.468;11.200;2024-03-23T08:07:06;9.37;;;5.67;;
8007;SDS011;4049;49.468;11.200;2024-03-23T08:09:33;8.50;;;5.67;;
8007;SDS011;4049;49.468;11.200;2024-03-23T08:11:58;9.20;;;5.33;;
8007;SDS011;4049;49.468;11.200;2024-03-23T08:14:25;9.13;;;5.90;;
8007;SDS011;4049;49.468;11.200;2024-03-23T08:16:54;7.10;;;4.97;;
8007;SDS011;4049;49.468;11.200;2024-03-23T08:19:21;8.63;;;5.37;;
8007;SDS011;4049;49.468;11.200;2024-03-23T08:21:46;7.17;;;5.27;;
8007;SDS011;4049;49.468;11.200;2024-03-23T08:24:15;7.53;;;5.23;;
8007;SDS011;4049;49.468;11.200;2024-03-23T08:26:45;9.37;;;5.87;;
8007;SDS011;4049;49.468;11.200;2024-03-23T08:29:12;9.90;;;6.13;;
8007;SDS011;4049;49.468;11.200;2024-03-23T08:31:39;8.87;;;5.53;;
8007;SDS011;4049;49.468;11.200;2024-03-23T08:34:06;7.37;;;4.90;;
8007;SDS011;4049;49.468;11.200;2024-03-23T08:36:31;6.23;;;3.97;;
8007;SDS011;4049;49.468;11.200;2024-03-23T08:38:58;5.20;;;3.30;;
8007;SDS011;4049;49.468;11.200;2024-03-23T08:41:25;4.70;;;3.40;;
8007;SDS011;4049;49.468;11.200;2024-03-23T08:43:52;4.17;;;3.07;;
8007;SDS011;4049;49.468;11.200;2024-03-23T08:46:18;5.13;;;2.80;;
8007;SDS011;4049;49.468;11.200;2024-03-23T08:48:45;4.87;;;3.10;;
8007;SDS011;4049;49.468;11.200;2024-03-23T08:51:14;4.67;;;2.80;;
8007;SDS011;4049;49.468;11.200;2024-03-23T08:53:42;3.13;;;2.57;;
8007;SDS011;4049;49.468;11.200;2024-03-23T08:56:09;3.03;;;2.60;;
8007;SDS011;4049;49.468;11.200;2024-03-23T08:58:38;3.30;;;2.80;;
8007;SDS011;4049;49.468;11.200;2024-03-23T09:01:06;3.70;;;2.90;;
8007;SDS011;4049;49.468;11.200;2024-03-23T09:03:33;3.23;;;2.50;;
8007;SDS011;4049;49.468;11.200;2024-03-23T09:06:00;2.63;;;2.10;;
8007;SDS011;4049;49.468;11.200;2024-03-23T09:08:28;2.07;;;1.87;;
8007;SDS011;4049;49.468;11.200;2024-03-23T09:10:54;2.57;;;2.07;;
8007;SDS011;4049;49.468;11.200;2024-03-23T09:13:20;2.60;;;2.30;;
8007;SDS011;4049;49.468;11.200;2024-03-23T09:15:48;2.13;;;1.90;;
8007;SDS011;4049;49.468;11.200;2024-03-23T09:18:16;2.17;;;1.93;;
8007;SDS011;4049;49.468;11.200;2024-03-23T09:20:42;3.10;;;2.10;;
8007;SDS011;4049;49.468;11.200;2024-03-23T09:23:09;2.67;;;1.80;;
8007;SDS011;4049;49.468;11.200;2024-03-23T09:25:38;1.77;;;1.60;;
8007;SDS011;4049;49.468;11.200;2024-03-23T09:28:06;2.03;;;1.70;;
8007;SDS011;4049;49.468;11.200;2024-03-23T09:30:34;1.80;;;1.40;;
8007;SDS011;4049;49.468;11.200;2024-03-23T09:33:02;2.40;;;1.40;;
8007;SDS011;4049;49.468;11.200;2024-03-23T09:35:29;1.47;;;1.20;;
8007;SDS011;4049;49.468;11.200;2024-03-23T09:37:55;1.33;;;1.20;;
8007;SDS011;4049;49.468;11.200;2024-03-23T09:40:22;1.27;;;1.17;;
8007;SDS011;4049;49.468;11.200;2024-03-23T09:42:49;1.10;;;1.00;;
8007;SDS011;4049;49.468;11.200;2024-03-23T09:45:17;0.93;;;0.90;;
8007;SDS011;4049;49.468;11.200;2024-03-23T09:47:46;0.90;;;0.70;;
8007;SDS011;4049;49.468;11.200;2024-03-23T09:50:13;0.90;;;0.90;;
8007;SDS011;4049;49.468;11.200;2024-03-23T09:52:40;1.00;;;1.00;;
8007;SDS011;4049;49.468;11.200;2024-03-23T09:55:07;0.80;;;0.80;;
8007;SDS011;4049;49.468;11.200;2024-03-23T09:57:35;2.30;;;0.80;;
8007;SDS011;4049;49.468;11.200;2024-03-23T10:00:01;0.60;;;0.60;;
8007;SDS011;4049;49.468;11.200;2024-03-23T10:02:28;1.07;;;0.90;;
8007;SDS011;4049;49.468;11.200;2024-03-23T10:04:54;0.80;;;0.80;;
8007;SDS011;4049;49.468;11.200;2024-03-23T10:07:23;0.70;;;0.70;;
8007;SDS011;4049;49.468;11.200;2024-03-23T10:09:50;0.80;;;0.80;;
8007;SDS011;4049;49.468;11.200;2024-03-23T10:12:18;1.20;;;1.10;;
8007;SDS011;4049;49.468;11.200;2024-03-23T10:14:44;1.03;;;0.93;;
8007;SDS011;4049;49.468;11.200;2024-03-23T10:17:12;1.30;;;0.80;;
8007;SDS011;4049;49.468;11.200;2024-03-23T10:19:39;0.70;;;0.70;;
8007;SDS011;4049;49.468;11.200;2024-03-23T10:22:08;1.03;;;0.90;;
8007;SDS011;4049;49.468;11.200;2024-03-23T10:24:35;0.60;;;0.60;;
8007;SDS011;4049;49.468;11.200;2024-03-23T10:27:02;1.10;;;0.83;;
8007;SDS011;4049;49.468;11.200;2024-03-23T10:29:28;0.83;;;0.83;;
8007;SDS011;4049;49.468;11.200;2024-03-23T10:31:58;0.90;;;0.90;;
8007;SDS011;4049;49.468;11.200;2024-03-23T10:34:33;1.20;;;1.10;;
8007;SDS011;4049;49.468;11.200;2024-03-23T10:37:01;1.10;;;1.00;;
8007;SDS011;4049;49.468;11.200;2024-03-23T10:39:28;1.20;;;1.10;;
8007;SDS011;4049;49.468;11.200;2024-03-23T10:41:58;1.10;;;1.00;;
8007;SDS011;4049;49.468;11.200;2024-03-23T10:44:26;1.90;;;1.10;;
8007;SDS011;4049;49.468;11.200;2024-03-23T10:46:56;3.20;;;1.30;;
8007;SDS011;4049;49.468;11.200;2024-03-23T10:49:25;1.43;;;1.20;;
8007;SDS011;4049;49.468;11.200;2024-03-23T10:51:54;2.07;;;1.20;;
8007;SDS011;4049;49.468;11.200;2024-03-23T10:54:22;1.23;;;1.13;;
8007;SDS011;4049;49.468;11.200;2024-03-23T10:56:51;2.23;;;1.53;;
8007;SDS011;4049;49.468;11.200;2024-03-23T10:59:26;2.23;;;1.50;;
8007;SDS011;4049;49.468;11.200;2024-03-23T11:01:54;2.17;;;1.77;;
8007;SDS011;4049;49.468;11.200;2024-03-23T11:09:55;4.97;;;1.83;;
8007;SDS011;4049;49.468;11.200;2024-03-23T11:12:29;1.80;;;1.40;;
8007;SDS011;4049;49.468;11.200;2024-03-23T11:14:59;3.33;;;1.40;;
8007;SDS011;4049;49.468;11.200;2024-03-23T11:17:28;2.10;;;1.70;;
8007;SDS011;4049;49.468;11.200;2024-03-23T11:19:54;3.27;;;1.67;;
8007;SDS011;4049;49.468;11.200;2024-03-23T11:22:38;2.17;;;1.80;;
8007;SDS011;4049;49.468;11.200;2024-03-23T11:25:12;2.03;;;1.60;;
8007;SDS011;4049;49.468;11.200;2024-03-23T11:27:43;2.03;;;1.57;;
8007;SDS011;4049;49.468;11.200;2024-03-23T11:30:13;2.37;;;2.03;;
8007;SDS011;4049;49.468;11.200;2024-03-23T11:32:41;3.33;;;2.00;;
8007;SDS011;4049;49.468;11.200;2024-03-23T11:35:07;3.50;;;2.10;;
8007;SDS011;4049;49.468;11.200;2024-03-23T11:37:35;3.10;;;2.20;;
8007;SDS011;4049;49.468;11.200;2024-03-23T11:40:16;5.57;;;2.27;;
8007;SDS011;4049;49.468;11.200;2024-03-23T11:42:43;3.30;;;2.20;;
8007;SDS011;4049;49.468;11.200;2024-03-23T11:45:10;3.27;;;2.07;;
8007;SDS011;4049;49.468;11.200;2024-03-23T11:47:39;3.20;;;2.00;;
8007;SDS011;4049;49.468;11.200;2024-03-23T11:50:04;2.80;;;2.00;;
8007;SDS011;4049;49.468;11.200;2024-03-23T11:52:31;4.37;;;2.20;;
8007;SDS011;4049;49.468;11.200;2024-03-23T11:55:02;2.83;;;1.77;;
8007;SDS011;4049;49.468;11.200;2024-03-23T11:57:30;4.00;;;2.13;;
8007;SDS011;4049;49.468;11.200;2024-03-23T11:59:56;3.87;;;2.03;;
8007;SDS011;4049;49.468;11.200;2024-03-23T12:02:23;3.43;;;2.30;;
8007;SDS011;4049;49.468;11.200;2024-03-23T12:04:50;4.37;;;2.07;;
8007;SDS011;4049;49.468;11.200;2024-03-23T12:07:18;4.33;;;2.97;;
8007;SDS011;4049;49.468;11.200;2024-03-23T12:09:45;5.33;;;2.53;;
8007;SDS011;4049;49.468;11.200;2024-03-23T12:12:14;5.53;;;2.50;;
8007;SDS011;4049;49.468;11.200;2024-03-23T12:14:41;6.43;;;2.70;;
8007;SDS011;4049;49.468;11.200;2024-03-23T12:17:09;5.27;;;2.83;;
8007;SDS011;4049;49.468;11.200;2024-03-23T12:19:35;3.93;;;2.33;;
8007;SDS011;4049;49.468;11.200;2024-03-23T12:22:04;6.87;;;2.40;;
8007;SDS011;4049;49.468;11.200;2024-03-23T12:24:30;2.57;;;2.10;;
8007;SDS011;4049;49.468;11.200;2024-03-23T12:26:59;5.00;;;2.20;;
8007;SDS011;4049;49.468;11.200;2024-03-23T12:29:26;3.93;;;2.10;;
8007;SDS011;4049;49.468;11.200;2024-03-23T12:31:54;3.10;;;2.20;;
8007;SDS011;4049;49.468;11.200;2024-03-23T12:34:21;5.17;;;2.30;;
8007;SDS011;4049;49.468;11.200;2024-03-23T12:36:48;3.17;;;2.40;;
8007;SDS011;4049;49.468;11.200;2024-03-23T12:39:15;4.43;;;2.70;;
8007;SDS011;4049;49.468;11.200;2024-03-23T12:41:43;4.60;;;2.60;;
8007;SDS011;4049;49.468;11.200;2024-03-23T12:44:08;4.00;;;2.50;;
8007;SDS011;4049;49.468;11.200;2024-03-23T12:46:37;3.80;;;2.70;;
8007;SDS011;4049;49.468;11.200;2024-03-23T12:49:02;4.00;;;2.60;;
8007;SDS011;4049;49.468;11.200;2024-03-23T12:51:30;3.93;;;2.13;;
8007;SDS011;4049;49.468;11.200;2024-03-23T12:53:56;3.77;;;2.80;;
8007;SDS011;4049;49.468;11.200;2024-03-23T12:56:24;5.27;;;2.70;;
8007;SDS011;4049;49.468;11.200;2024-03-23T12:58:50;6.23;;;2.30;;
8007;SDS011;4049;49.468;11.200;2024-03-23T13:01:18;3.20;;;2.30;;
8007;SDS011;4049;49.468;11.200;2024-03-23T13:03:46;5.57;;;2.53;;
8007;SDS011;4049;49.468;11.200;2024-03-23T13:06:12;5.73;;;2.40;;
8007;SDS011;4049;49.468;11.200;2024-03-23T13:08:38;2.57;;;2.00;;
8007;SDS011;4049;49.468;11.200;2024-03-23T13:11:06;3.73;;;2.57;;
8007;SDS011;4049;49.468;11.200;2024-03-23T13:13:35;5.90;;;2.80;;
8007;SDS011;4049;49.468;11.200;2024-03-23T13:16:02;5.90;;;3.00;;
8007;SDS011;4049;49.468;11.200;2024-03-23T13:18:29;4.40;;;2.40;;
8007;SDS011;4049;49.468;11.200;2024-03-23T13:20:56;3.17;;;2.27;;
8007;SDS011;4049;49.468;11.200;2024-03-23T13:23:22;4.00;;;2.77;;
8007;SDS011;4049;49.468;11.200;2024-03-23T13:25:51;5.63;;;2.93;;
8007;SDS011;4049;49.468;11.200;2024-03-23T13:28:18;6.10;;;2.73;;
8007;SDS011;4049;49.468;11.200;2024-03-23T13:30:53;6.07;;;2.90;;
8007;SDS011;4049;49.468;11.200;2024-03-23T13:33:19;4.37;;;2.37;;
8007;SDS011;4049;49.468;11.200;2024-03-23T13:35:49;6.77;;;2.93;;
8007;SDS011;4049;49.468;11.200;2024-03-23T13:38:15;4.07;;;2.70;;
8007;SDS011;4049;49.468;11.200;2024-03-23T13:40:51;4.97;;;2.90;;
8007;SDS011;4049;49.468;11.200;2024-03-23T13:43:18;4.20;;;2.57;;
8007;SDS011;4049;49.468;11.200;2024-03-23T13:45:45;5.93;;;2.37;;
8007;SDS011;4049;49.468;11.200;2024-03-23T13:48:13;4.13;;;2.20;;
8007;SDS011;4049;49.468;11.200;2024-03-23T13:50:40;5.60;;;2.67;;
8007;SDS011;4049;49.468;11.200;2024-03-23T13:53:06;5.87;;;2.37;;
8007;SDS011;4049;49.468;11.200;2024-03-23T13:55:34;3.63;;;2.83;;
8007;SDS011;4049;49.468;11.200;2024-03-23T13:58:00;4.47;;;2.87;;
8007;SDS011;4049;49.468;11.200;2024-03-23T14:00:26;4.40;;;2.40;;
8007;SDS011;4049;49.468;11.200;2024-03-23T14:02:52;5.30;;;2.63;;
8007;SDS011;4049;49.468;11.200;2024-03-23T14:05:21;5.90;;;2.90;;
8007;SDS011;4049;49.468;11.200;2024-03-23T14:07:46;5.27;;;2.50;;
8007;SDS011;4049;49.468;11.200;2024-03-23T14:10:14;5.47;;;2.47;;
8007;SDS011;4049;49.468;11.200;2024-03-23T14:12:40;4.10;;;2.33;;
8007;SDS011;4049;49.468;11.200;2024-03-23T14:15:07;5.80;;;2.67;;
8007;SDS011;4049;49.468;11.200;2024-03-23T14:17:34;6.37;;;2.53;;
8007;SDS011;4049;49.468;11.200;2024-03-23T14:20:01;5.57;;;2.33;;
8007;SDS011;4049;49.468;11.200;2024-03-23T14:22:31;4.30;;;2.40;;
8007;SDS011;4049;49.468;11.200;2024-03-23T14:24:58;3.80;;;2.40;;
8007;SDS011;4049;49.468;11.200;2024-03-23T14:27:24;5.43;;;2.43;;
8007;SDS011;4049;49.468;11.200;2024-03-23T14:29:51;7.53;;;2.20;;
8007;SDS011;4049;49.468;11.200;2024-03-23T14:32:17;4.53;;;2.23;;
8007;SDS011;4049;49.468;11.200;2024-03-23T14:34:44;5.40;;;2.30;;
8007;SDS011;4049;49.468;11.200;2024-03-23T14:37:10;7.90;;;2.10;;
8007;SDS011;4049;49.468;11.200;2024-03-23T14:39:38;5.80;;;2.03;;
8007;SDS011;4049;49.468;11.200;2024-03-23T14:42:06;3.93;;;2.57;;
8007;SDS011;4049;49.468;11.200;2024-03-23T14:44:35;6.13;;;2.60;;
8007;SDS011;4049;49.468;11.200;2024-03-23T14:47:01;8.57;;;2.83;;
8007;SDS011;4049;49.468;11.200;2024-03-23T14:49:27;6.00;;;2.33;;
8007;SDS011;4049;49.468;11.200;2024-03-23T14:51:54;7.73;;;2.50;;
8007;SDS011;4049;49.468;11.200;2024-03-23T14:54:20;4.57;;;2.30;;
8007;SDS011;4049;49.468;11.200;2024-03-23T14:56:48;5.03;;;2.50;;
8007;SDS011;4049;49.468;11.200;2024-03-23T14:59:14;10.27;;;3.07;;
8007;SDS011;4049;49.468;11.200;2024-03-23T15:01:40;8.57;;;2.40;;
8007;SDS011;4049;49.468;11.200;2024-03-23T15:04:06;5.53;;;2.30;;
8007;SDS011;4049;49.468;11.200;2024-03-23T15:06:33;8.90;;;2.27;;
8007;SDS011;4049;49.468;11.200;2024-03-23T15:08:59;8.17;;;3.07;;
8007;SDS011;4049;49.468;11.200;2024-03-23T15:11:26;4.57;;;2.30;;
8007;SDS011;4049;49.468;11.200;2024-03-23T15:13:53;5.43;;;2.50;;
8007;SDS011;4049;49.468;11.200;2024-03-23T15:16:20;5.70;;;2.67;;
8007;SDS011;4049;49.468;11.200;2024-03-23T15:18:46;5.17;;;2.37;;
8007;SDS011;4049;49.468;11.200;2024-03-23T15:21:13;3.90;;;2.07;;
8007;SDS011;4049;49.468;11.200;2024-03-23T15:23:44;4.53;;;2.37;;
8007;SDS011;4049;49.468;11.200;2024-03-23T15:26:13;4.97;;;2.73;;
8007;SDS011;4049;49.468;11.200;2024-03-23T15:28:39;4.50;;;2.70;;
8007;SDS011;4049;49.468;11.200;2024-03-23T15:31:10;3.00;;;2.37;;
8007;SDS011;4049;49.468;11.200;2024-03-23T15:33:36;2.97;;;2.10;;
8007;SDS011;4049;49.468;11.200;2024-03-23T15:36:04;3.87;;;2.40;;
8007;SDS011;4049;49.468;11.200;2024-03-23T15:38:31;2.90;;;2.20;;
8007;SDS011;4049;49.468;11.200;2024-03-23T15:40:58;3.17;;;2.30;;
8007;SDS011;4049;49.468;11.200;2024-03-23T15:43:26;5.67;;;2.13;;
8007;SDS011;4049;49.468;11.200;2024-03-23T15:45:55;3.30;;;2.40;;
8007;SDS011;4049;49.468;11.200;2024-03-23T15:48:24;6.10;;;3.00;;
8007;SDS011;4049;49.468;11.200;2024-03-23T15:50:52;6.13;;;2.93;;
8007;SDS011;4049;49.468;11.200;2024-03-23T15:53:19;4.50;;;2.60;;
8007;SDS011;4049;49.468;11.200;2024-03-23T15:55:44;3.67;;;2.30;;
8007;SDS011;4049;49.468;11.200;2024-03-23T15:58:11;5.30;;;2.80;;